sensor_id;sensor_type;location;lat;lon;timestamp;temperature;humidity
13115;DHT22;6623;52.120;8.660;2024-01-10T00:01:41;17.30;33.60
13115;DHT22;6623;52.120;8.660;2024-01-10T00:04:07;17.40;33.70
13115;DHT22;6623;52.120;8.660;2024-01-10T00:06:32;17.30;33.70
13115;DHT22;6623;52.120;8.660;2024-01-10T00:08:58;17.30;33.70
13115;DHT22;6623;52.120;8.660;2024-01-10T00:11:23;17.30;33.60
13115;DHT22;6623;52.120;8.660;2024-01-10T00:13:49;17.30;33.70
13115;DHT22;6623;52.120;8.660;2024-01-10T00:16:14;17.30;33.70
13115;DHT22;6623;52.120;8.660;2024-01-10T00:18:40;17.30;33.70
13115;DHT22;6623;52.120;8.660;2024-01-10T00:21:06;17.30;33.70
13115;DHT22;6623;52.120;8.660;2024-01-10T00:23:32;17.30;33.70
13115;DHT22;6623;52.120;8.660;2024-01-10T00:25:57;17.30;33.70
13115;DHT22;6623;52.120;8.660;2024-01-10T00:28:23;17.30;33.70
13115;DHT22;6623;52.120;8.660;2024-01-10T00:30:48;17.30;33.70
13115;DHT22;6623;52.120;8.660;2024-01-10T00:33:14;17.20;33.70
13115;DHT22;6623;52.120;8.660;2024-01-10T00:35:40;17.20;33.70
13115;DHT22;6623;52.120;8.660;2024-01-10T00:38:06;17.20;33.70
13115;DHT22;6623;52.120;8.660;2024-01-10T00:40:31;17.30;33.80
13115;DHT22;6623;52.120;8.660;2024-01-10T00:42:57;17.20;33.70
13115;DHT22;6623;52.120;8.660;2024-01-10T00:45:22;17.30;33.80
13115;DHT22;6623;52.120;8.660;2024-01-10T00:47:51;17.30;33.80
13115;DHT22;6623;52.120;8.660;2024-01-10T00:50:16;17.30;33.80
13115;DHT22;6623;52.120;8.660;2024-01-10T00:52:46;17.30;33.80
13115;DHT22;6623;52.120;8.660;2024-01-10T00:55:12;17.30;33.80
13115;DHT22;6623;52.120;8.660;2024-01-10T00:57:37;17.40;33.80
13115;DHT22;6623;52.120;8.660;2024-01-10T01:00:05;17.40;33.80
13115;DHT22;6623;52.120;8.660;2024-01-10T01:02:30;17.40;33.80
13115;DHT22;6623;52.120;8.660;2024-01-10T01:04:56;17.40;33.80
13115;DHT22;6623;52.120;8.660;2024-01-10T01:07:21;17.50;33.80
13115;DHT22;6623;52.120;8.660;2024-01-10T01:09:47;17.50;33.80
13115;DHT22;6623;52.120;8.660;2024-01-10T01:12:12;17.50;33.80
13115;DHT22;6623;52.120;8.660;2024-01-10T01:14:38;17.50;33.80
13115;DHT22;6623;52.120;8.660;2024-01-10T01:17:03;17.50;33.80
13115;DHT22;6623;52.120;8.660;2024-01-10T01:19:29;17.50;33.80
13115;DHT22;6623;52.120;8.660;2024-01-10T01:21:54;17.50;33.80
13115;DHT22;6623;52.120;8.660;2024-01-10T01:24:20;17.50;33.80
13115;DHT22;6623;52.120;8.660;2024-01-10T01:26:45;17.50;33.80
13115;DHT22;6623;52.120;8.660;2024-01-10T01:29:11;17.50;33.80
13115;DHT22;6623;52.120;8.660;2024-01-10T01:31:36;17.50;33.80
13115;DHT22;6623;52.120;8.660;2024-01-10T01:34:02;17.50;33.80
13115;DHT22;6623;52.120;8.660;2024-01-10T01:36:28;17.50;33.80
13115;DHT22;6623;52.120;8.660;2024-01-10T01:38:53;17.60;33.90
13115;DHT22;6623;52.120;8.660;2024-01-10T01:41:19;17.60;33.90
13115;DHT22;6623;52.120;8.660;2024-01-10T01:43:44;17.50;33.80
13115;DHT22;6623;52.120;8.660;2024-01-10T01:46:11;17.60;33.90
13115;DHT22;6623;52.120;8.660;2024-01-10T01:48:37;17.60;33.90
13115;DHT22;6623;52.120;8.660;2024-01-10T01:51:05;17.60;33.80
13115;DHT22;6623;52.120;8.660;2024-01-10T01:53:32;17.60;33.80
13115;DHT22;6623;52.120;8.660;2024-01-10T01:56:00;17.60;33.80
13115;DHT22;6623;52.120;8.660;2024-01-10T01:58:28;17.60;33.80
13115;DHT22;6623;52.120;8.660;2024-01-10T02:00:54;17.60;33.80
13115;DHT22;6623;52.120;8.660;2024-01-10T02:03:21;17.50;33.70
13115;DHT22;6623;52.120;8.660;2024-01-10T02:05:47;17.60;33.80
13115;DHT22;6623;52.120;8.660;2024-01-10T02:08:13;17.50;33.80
13115;DHT22;6623;52.120;8.660;2024-01-10T02:10:39;17.50;33.80
13115;DHT22;6623;52.120;8.660;2024-01-10T02:13:05;17.50;33.80
13115;DHT22;6623;52.120;8.660;2024-01-10T02:15:31;17.50;33.80
13115;DHT22;6623;52.120;8.660;2024-01-10T02:17:56;17.50;33.80
13115;DHT22;6623;52.120;8.660;2024-01-10T02:20:22;17.50;33.70
13115;DHT22;6623;52.120;8.660;2024-01-10T02:22:47;17.50;33.80
13115;DHT22;6623;52.120;8.660;2024-01-10T02:25:15;17.50;33.70
13115;DHT22;6623;52.120;8.660;2024-01-10T02:27:41;17.50;33.80
13115;DHT22;6623;52.120;8.660;2024-01-10T02:30:08;17.50;33.80
13115;DHT22;6623;52.120;8.660;2024-01-10T02:32:34;17.50;33.80
13115;DHT22;6623;52.120;8.660;2024-01-10T02:35:00;17.50;33.80
13115;DHT22;6623;52.120;8.660;2024-01-10T02:37:26;17.50;33.80
13115;DHT22;6623;52.120;8.660;2024-01-10T02:39:51;17.50;33.80
13115;DHT22;6623;52.120;8.660;2024-01-10T02:42:17;17.40;33.70
13115;DHT22;6623;52.120;8.660;2024-01-10T02:44:43;17.40;33.80
13115;DHT22;6623;52.120;8.660;2024-01-10T02:47:09;17.40;33.80
13115;DHT22;6623;52.120;8.660;2024-01-10T02:49:35;17.40;33.80
13115;DHT22;6623;52.120;8.660;2024-01-10T02:52:00;17.40;33.80
13115;DHT22;6623;52.120;8.660;2024-01-10T02:54:26;17.40;33.80
13115;DHT22;6623;52.120;8.660;2024-01-10T02:56:51;17.40;33.80
13115;DHT22;6623;52.120;8.660;2024-01-10T02:59:17;17.40;33.80
13115;DHT22;6623;52.120;8.660;2024-01-10T03:01:43;17.40;33.80
13115;DHT22;6623;52.120;8.660;2024-01-10T03:04:09;17.40;33.80
13115;DHT22;6623;52.120;8.660;2024-01-10T03:06:34;17.40;33.80
13115;DHT22;6623;52.120;8.660;2024-01-10T03:09:00;17.40;33.90
13115;DHT22;6623;52.120;8.660;2024-01-10T03:11:25;17.40;33.90
13115;DHT22;6623;52.120;8.660;2024-01-10T03:14:00;17.40;33.90
13115;DHT22;6623;52.120;8.660;2024-01-10T03:16:26;17.40;34.20
13115;DHT22;6623;52.120;8.660;2024-01-10T03:18:52;17.40;33.90
13115;DHT22;6623;52.120;8.660;2024-01-10T03:21:18;17.40;33.90
13115;DHT22;6623;52.120;8.660;2024-01-10T03:23:50;17.40;33.90
13115;DHT22;6623;52.120;8.660;2024-01-10T03:26:15;17.40;33.90
13115;DHT22;6623;52.120;8.660;2024-01-10T03:28:41;17.40;33.90
13115;DHT22;6623;52.120;8.660;2024-01-10T03:31:06;17.50;34.00
13115;DHT22;6623;52.120;8.660;2024-01-10T03:33:32;17.50;33.90
13115;DHT22;6623;52.120;8.660;2024-01-10T03:35:58;17.50;33.90
13115;DHT22;6623;52.120;8.660;2024-01-10T03:38:23;17.50;33.90
13115;DHT22;6623;52.120;8.660;2024-01-10T03:40:49;17.60;33.90
13115;DHT22;6623;52.120;8.660;2024-01-10T03:43:14;17.60;33.90
13115;DHT22;6623;52.120;8.660;2024-01-10T03:45:42;17.60;33.90
13115;DHT22;6623;52.120;8.660;2024-01-10T03:48:07;17.60;33.90
13115;DHT22;6623;52.120;8.660;2024-01-10T03:50:33;17.60;33.90
13115;DHT22;6623;52.120;8.660;2024-01-10T03:52:58;17.60;33.90
13115;DHT22;6623;52.120;8.660;2024-01-10T03:55:24;17.60;33.90
13115;DHT22;6623;52.120;8.660;2024-01-10T03:57:49;17.60;33.90
13115;DHT22;6623;52.120;8.660;2024-01-10T04:00:15;17.60;33.90
13115;DHT22;6623;52.120;8.660;2024-01-10T04:02:40;17.60;33.90
13115;DHT22;6623;52.120;8.660;2024-01-10T04:05:09;17.60;33.90
13115;DHT22;6623;52.120;8.660;2024-01-10T04:07:38;17.60;33.90
13115;DHT22;6623;52.120;8.660;2024-01-10T04:10:05;17.60;33.90
13115;DHT22;6623;52.120;8.660;2024-01-10T04:12:32;17.60;33.90
13115;DHT22;6623;52.120;8.660;2024-01-10T04:14:58;17.60;33.90
13115;DHT22;6623;52.120;8.660;2024-01-10T04:17:23;17.60;33.90
13115;DHT22;6623;52.120;8.660;2024-01-10T04:19:49;17.60;33.90
13115;DHT22;6623;52.120;8.660;2024-01-10T04:22:14;17.60;33.90
13115;DHT22;6623;52.120;8.660;2024-01-10T04:24:40;17.60;33.90
13115;DHT22;6623;52.120;8.660;2024-01-10T04:27:05;17.60;33.90
13115;DHT22;6623;52.120;8.660;2024-01-10T04:29:31;17.60;33.90
13115;DHT22;6623;52.120;8.660;2024-01-10T04:31:56;17.60;33.90
13115;DHT22;6623;52.120;8.660;2024-01-10T04:34:21;17.60;33.80
13115;DHT22;6623;52.120;8.660;2024-01-10T04:36:48;17.60;33.80
13115;DHT22;6623;52.120;8.660;2024-01-10T04:39:14;17.60;33.90
13115;DHT22;6623;52.120;8.660;2024-01-10T04:41:39;17.60;33.80
13115;DHT22;6623;52.120;8.660;2024-01-10T04:44:05;17.50;34.40
13115;DHT22;6623;52.120;8.660;2024-01-10T04:46:30;17.50;33.70
13115;DHT22;6623;52.120;8.660;2024-01-10T04:48:56;17.50;33.80
13115;DHT22;6623;52.120;8.660;2024-01-10T04:51:22;17.50;33.70
13115;DHT22;6623;52.120;8.660;2024-01-10T04:53:47;17.50;33.80
13115;DHT22;6623;52.120;8.660;2024-01-10T04:56:13;17.50;33.80
13115;DHT22;6623;52.120;8.660;2024-01-10T04:58:38;17.50;33.80
13115;DHT22;6623;52.120;8.660;2024-01-10T05:01:04;17.50;33.80
13115;DHT22;6623;52.120;8.660;2024-01-10T05:03:29;17.50;33.80
13115;DHT22;6623;52.120;8.660;2024-01-10T05:05:55;17.50;33.80
13115;DHT22;6623;52.120;8.660;2024-01-10T05:08:20;17.50;33.80
13115;DHT22;6623;52.120;8.660;2024-01-10T05:10:46;17.40;33.70
13115;DHT22;6623;52.120;8.660;2024-01-10T05:13:12;17.40;33.70
13115;DHT22;6623;52.120;8.660;2024-01-10T05:15:38;17.40;33.70
13115;DHT22;6623;52.120;8.660;2024-01-10T05:18:04;17.40;33.70
13115;DHT22;6623;52.120;8.660;2024-01-10T05:20:29;17.40;33.70
13115;DHT22;6623;52.120;8.660;2024-01-10T05:22:55;17.40;33.70
13115;DHT22;6623;52.120;8.660;2024-01-10T05:25:24;17.40;33.70
13115;DHT22;6623;52.120;8.660;2024-01-10T05:27:49;17.40;33.80
13115;DHT22;6623;52.120;8.660;2024-01-10T05:30:15;17.30;33.70
13115;DHT22;6623;52.120;8.660;2024-01-10T05:32:41;17.30;33.70
13115;DHT22;6623;52.120;8.660;2024-01-10T05:35:07;17.30;34.40
13115;DHT22;6623;52.120;8.660;2024-01-10T05:37:33;17.30;33.70
13115;DHT22;6623;52.120;8.660;2024-01-10T05:39:58;17.30;33.70
13115;DHT22;6623;52.120;8.660;2024-01-10T05:42:24;17.30;33.80
13115;DHT22;6623;52.120;8.660;2024-01-10T05:44:50;17.30;33.70
13115;DHT22;6623;52.120;8.660;2024-01-10T05:47:16;17.30;33.80
13115;DHT22;6623;52.120;8.660;2024-01-10T05:49:41;17.30;33.80
13115;DHT22;6623;52.120;8.660;2024-01-10T05:52:07;17.30;33.70
13115;DHT22;6623;52.120;8.660;2024-01-10T05:54:33;17.30;33.80
13115;DHT22;6623;52.120;8.660;2024-01-10T05:56:59;17.30;33.70
13115;DHT22;6623;52.120;8.660;2024-01-10T05:59:26;17.30;33.70
13115;DHT22;6623;52.120;8.660;2024-01-10T06:01:52;17.40;33.80
13115;DHT22;6623;52.120;8.660;2024-01-10T06:04:17;17.40;33.80
13115;DHT22;6623;52.120;8.660;2024-01-10T06:06:43;17.40;33.70
13115;DHT22;6623;52.120;8.660;2024-01-10T06:09:10;17.40;33.70
13115;DHT22;6623;52.120;8.660;2024-01-10T06:11:43;17.40;33.80
13115;DHT22;6623;52.120;8.660;2024-01-10T06:14:09;17.50;33.70
13115;DHT22;6623;52.120;8.660;2024-01-10T06:16:34;17.40;33.70
13115;DHT22;6623;52.120;8.660;2024-01-10T06:19:00;17.50;33.70
13115;DHT22;6623;52.120;8.660;2024-01-10T06:21:26;17.50;33.70
13115;DHT22;6623;52.120;8.660;2024-01-10T06:23:51;17.50;33.70
13115;DHT22;6623;52.120;8.660;2024-01-10T06:26:17;17.50;33.70
13115;DHT22;6623;52.120;8.660;2024-01-10T06:28:42;17.50;33.70
13115;DHT22;6623;52.120;8.660;2024-01-10T06:31:08;17.50;33.70
13115;DHT22;6623;52.120;8.660;2024-01-10T06:33:33;17.50;33.70
13115;DHT22;6623;52.120;8.660;2024-01-10T06:35:59;17.50;33.70
13115;DHT22;6623;52.120;8.660;2024-01-10T06:38:24;17.40;33.70
13115;DHT22;6623;52.120;8.660;2024-01-10T06:40:50;17.50;33.70
13115;DHT22;6623;52.120;8.660;2024-01-10T06:43:16;17.40;33.60
13115;DHT22;6623;52.120;8.660;2024-01-10T06:45:41;17.40;33.70
13115;DHT22;6623;52.120;8.660;2024-01-10T06:48:07;17.40;33.70
13115;DHT22;6623;52.120;8.660;2024-01-10T06:50:33;17.40;33.60
13115;DHT22;6623;52.120;8.660;2024-01-10T06:52:59;17.40;33.60
13115;DHT22;6623;52.120;8.660;2024-01-10T06:55:24;17.40;33.60
13115;DHT22;6623;52.120;8.660;2024-01-10T06:57:51;17.40;33.60
13115;DHT22;6623;52.120;8.660;2024-01-10T07:00:19;17.40;33.60
13115;DHT22;6623;52.120;8.660;2024-01-10T07:02:46;17.40;33.60
13115;DHT22;6623;52.120;8.660;2024-01-10T07:05:11;17.40;33.60
13115;DHT22;6623;52.120;8.660;2024-01-10T07:07:37;17.40;33.60
13115;DHT22;6623;52.120;8.660;2024-01-10T07:10:03;17.40;33.60
13115;DHT22;6623;52.120;8.660;2024-01-10T07:12:34;17.40;33.60
13115;DHT22;6623;52.120;8.660;2024-01-10T07:15:00;17.40;33.50
13115;DHT22;6623;52.120;8.660;2024-01-10T07:17:28;17.30;33.50
13115;DHT22;6623;52.120;8.660;2024-01-10T07:19:53;17.30;33.50
13115;DHT22;6623;52.120;8.660;2024-01-10T07:22:22;17.30;33.50
13115;DHT22;6623;52.120;8.660;2024-01-10T07:24:47;17.30;33.50
13115;DHT22;6623;52.120;8.660;2024-01-10T07:27:13;17.30;33.50
13115;DHT22;6623;52.120;8.660;2024-01-10T07:29:40;17.30;33.50
13115;DHT22;6623;52.120;8.660;2024-01-10T07:32:06;17.30;33.50
13115;DHT22;6623;52.120;8.660;2024-01-10T07:34:39;17.30;33.50
13115;DHT22;6623;52.120;8.660;2024-01-10T07:37:04;17.30;33.50
13115;DHT22;6623;52.120;8.660;2024-01-10T07:39:30;17.30;33.50
13115;DHT22;6623;52.120;8.660;2024-01-10T07:41:55;17.30;33.50
13115;DHT22;6623;52.120;8.660;2024-01-10T07:44:21;17.30;33.50
13115;DHT22;6623;52.120;8.660;2024-01-10T07:46:47;17.30;33.50
13115;DHT22;6623;52.120;8.660;2024-01-10T07:49:12;17.30;33.50
13115;DHT22;6623;52.120;8.660;2024-01-10T07:51:37;17.30;33.50
13115;DHT22;6623;52.120;8.660;2024-01-10T07:54:03;17.30;33.50
13115;DHT22;6623;52.120;8.660;2024-01-10T07:56:28;17.30;33.50
13115;DHT22;6623;52.120;8.660;2024-01-10T07:58:55;17.30;33.50
13115;DHT22;6623;52.120;8.660;2024-01-10T08:01:20;17.30;33.50
13115;DHT22;6623;52.120;8.660;2024-01-10T08:03:46;17.20;34.10
13115;DHT22;6623;52.120;8.660;2024-01-10T08:06:12;17.30;33.60
13115;DHT22;6623;52.120;8.660;2024-01-10T08:08:39;17.30;33.50
13115;DHT22;6623;52.120;8.660;2024-01-10T08:11:04;17.30;33.60
13115;DHT22;6623;52.120;8.660;2024-01-10T08:13:30;17.30;33.60
13115;DHT22;6623;52.120;8.660;2024-01-10T08:15:56;17.30;33.60
13115;DHT22;6623;52.120;8.660;2024-01-10T08:18:23;17.30;33.60
13115;DHT22;6623;52.120;8.660;2024-01-10T08:20:48;17.40;33.60
13115;DHT22;6623;52.120;8.660;2024-01-10T08:23:14;17.40;33.60
13115;DHT22;6623;52.120;8.660;2024-01-10T08:25:39;17.40;33.60
13115;DHT22;6623;52.120;8.660;2024-01-10T08:28:06;17.50;33.70
13115;DHT22;6623;52.120;8.660;2024-01-10T08:30:31;17.50;33.60
13115;DHT22;6623;52.120;8.660;2024-01-10T08:32:57;17.50;33.50
13115;DHT22;6623;52.120;8.660;2024-01-10T08:35:23;17.50;33.50
13115;DHT22;6623;52.120;8.660;2024-01-10T08:37:49;17.50;33.60
13115;DHT22;6623;52.120;8.660;2024-01-10T08:40:14;17.60;33.60
13115;DHT22;6623;52.120;8.660;2024-01-10T08:42:41;17.60;33.60
13115;DHT22;6623;52.120;8.660;2024-01-10T08:45:08;17.60;33.60
13115;DHT22;6623;52.120;8.660;2024-01-10T08:47:35;17.60;33.50
13115;DHT22;6623;52.120;8.660;2024-01-10T08:50:03;17.60;33.50
13115;DHT22;6623;52.120;8.660;2024-01-10T08:52:30;17.60;34.10
13115;DHT22;6623;52.120;8.660;2024-01-10T08:54:56;17.70;33.50
13115;DHT22;6623;52.120;8.660;2024-01-10T08:57:21;17.70;33.40
13115;DHT22;6623;52.120;8.660;2024-01-10T08:59:47;17.70;33.50
13115;DHT22;6623;52.120;8.660;2024-01-10T09:02:12;17.70;33.40
13115;DHT22;6623;52.120;8.660;2024-01-10T09:04:38;17.70;33.40
13115;DHT22;6623;52.120;8.660;2024-01-10T09:07:04;17.70;33.40
13115;DHT22;6623;52.120;8.660;2024-01-10T09:09:29;17.70;33.40
13115;DHT22;6623;52.120;8.660;2024-01-10T09:11:56;17.70;33.40
13115;DHT22;6623;52.120;8.660;2024-01-10T09:14:21;17.70;33.40
13115;DHT22;6623;52.120;8.660;2024-01-10T09:16:47;17.60;33.30
13115;DHT22;6623;52.120;8.660;2024-01-10T09:19:12;17.70;33.40
13115;DHT22;6623;52.120;8.660;2024-01-10T09:21:38;17.60;33.30
13115;DHT22;6623;52.120;8.660;2024-01-10T09:24:04;17.60;33.30
13115;DHT22;6623;52.120;8.660;2024-01-10T09:26:33;17.60;33.30
13115;DHT22;6623;52.120;8.660;2024-01-10T09:28:59;17.60;33.30
13115;DHT22;6623;52.120;8.660;2024-01-10T09:31:24;17.60;33.40
13115;DHT22;6623;52.120;8.660;2024-01-10T09:33:50;17.60;33.30
13115;DHT22;6623;52.120;8.660;2024-01-10T09:36:15;17.60;33.30
13115;DHT22;6623;52.120;8.660;2024-01-10T09:38:41;17.60;33.30
13115;DHT22;6623;52.120;8.660;2024-01-10T09:41:06;17.50;33.20
13115;DHT22;6623;52.120;8.660;2024-01-10T09:43:32;17.50;33.30
13115;DHT22;6623;52.120;8.660;2024-01-10T09:46:01;17.50;33.30
13115;DHT22;6623;52.120;8.660;2024-01-10T09:48:30;17.50;33.30
13115;DHT22;6623;52.120;8.660;2024-01-10T09:50:56;17.50;33.20
13115;DHT22;6623;52.120;8.660;2024-01-10T09:53:24;17.50;33.20
13115;DHT22;6623;52.120;8.660;2024-01-10T09:55:49;17.50;33.30
13115;DHT22;6623;52.120;8.660;2024-01-10T09:58:15;17.40;33.20
13115;DHT22;6623;52.120;8.660;2024-01-10T10:00:41;17.40;33.20
13115;DHT22;6623;52.120;8.660;2024-01-10T10:03:10;17.50;33.30
13115;DHT22;6623;52.120;8.660;2024-01-10T10:05:38;17.40;33.20
13115;DHT22;6623;52.120;8.660;2024-01-10T10:08:06;17.40;33.20
13115;DHT22;6623;52.120;8.660;2024-01-10T10:10:32;17.40;33.20
13115;DHT22;6623;52.120;8.660;2024-01-10T10:12:58;17.40;33.20
13115;DHT22;6623;52.120;8.660;2024-01-10T10:15:25;17.40;33.20
13115;DHT22;6623;52.120;8.660;2024-01-10T10:17:53;17.30;33.20
13115;DHT22;6623;52.120;8.660;2024-01-10T10:20:24;17.30;33.20
13115;DHT22;6623;52.120;8.660;2024-01-10T10:23:07;17.30;33.20
13115;DHT22;6623;52.120;8.660;2024-01-10T10:25:36;17.30;33.20
13115;DHT22;6623;52.120;8.660;2024-01-10T10:28:04;17.30;33.30
13115;DHT22;6623;52.120;8.660;2024-01-10T10:30:33;17.30;33.30
13115;DHT22;6623;52.120;8.660;2024-01-10T10:32:59;17.30;33.30
13115;DHT22;6623;52.120;8.660;2024-01-10T10:35:24;17.30;33.20
13115;DHT22;6623;52.120;8.660;2024-01-10T10:37:51;17.30;33.30
13115;DHT22;6623;52.120;8.660;2024-01-10T10:40:18;17.30;33.30
13115;DHT22;6623;52.120;8.660;2024-01-10T10:42:54;17.30;33.30
13115;DHT22;6623;52.120;8.660;2024-01-10T10:45:20;17.30;33.30
13115;DHT22;6623;52.120;8.660;2024-01-10T10:47:58;17.30;33.30
13115;DHT22;6623;52.120;8.660;2024-01-10T10:50:27;17.30;33.30
13115;DHT22;6623;52.120;8.660;2024-01-10T10:52:55;17.30;33.30
13115;DHT22;6623;52.120;8.660;2024-01-10T10:55:22;17.30;33.30
13115;DHT22;6623;52.120;8.660;2024-01-10T10:57:49;17.40;33.30
13115;DHT22;6623;52.120;8.660;2024-01-10T11:00:19;17.40;33.30
13115;DHT22;6623;52.120;8.660;2024-01-10T11:02:45;17.40;33.30
13115;DHT22;6623;52.120;8.660;2024-01-10T11:05:12;17.40;33.30
13115;DHT22;6623;52.120;8.660;2024-01-10T11:07:41;17.40;33.30
13115;DHT22;6623;52.120;8.660;2024-01-10T11:10:13;17.40;33.20
13115;DHT22;6623;52.120;8.660;2024-01-10T11:21:24;17.40;33.20
13115;DHT22;6623;52.120;8.660;2024-01-10T11:23:59;17.40;33.20
13115;DHT22;6623;52.120;8.660;2024-01-10T11:26:25;17.40;33.20
13115;DHT22;6623;52.120;8.660;2024-01-10T11:28:51;17.40;33.20
13115;DHT22;6623;52.120;8.660;2024-01-10T11:31:28;17.40;33.20
13115;DHT22;6623;52.120;8.660;2024-01-10T11:33:59;17.40;33.20
13115;DHT22;6623;52.120;8.660;2024-01-10T11:36:26;17.40;33.20
13115;DHT22;6623;52.120;8.660;2024-01-10T11:41:38;17.40;33.20
13115;DHT22;6623;52.120;8.660;2024-01-10T11:49:12;17.40;33.20
13115;DHT22;6623;52.120;8.660;2024-01-10T11:51:42;17.40;33.20
13115;DHT22;6623;52.120;8.660;2024-01-10T11:54:08;17.40;33.20
13115;DHT22;6623;52.120;8.660;2024-01-10T11:56:41;17.30;33.10
13115;DHT22;6623;52.120;8.660;2024-01-10T11:59:09;17.30;33.10
13115;DHT22;6623;52.120;8.660;2024-01-10T12:01:40;17.30;33.10
13115;DHT22;6623;52.120;8.660;2024-01-10T12:04:06;17.30;33.10
13115;DHT22;6623;52.120;8.660;2024-01-10T12:06:34;17.30;33.10
13115;DHT22;6623;52.120;8.660;2024-01-10T12:09:00;17.30;33.10
13115;DHT22;6623;52.120;8.660;2024-01-10T12:11:30;17.30;33.10
13115;DHT22;6623;52.120;8.660;2024-01-10T12:13:55;17.30;33.10
13115;DHT22;6623;52.120;8.660;2024-01-10T12:16:23;17.30;33.10
13115;DHT22;6623;52.120;8.660;2024-01-10T12:18:48;17.30;33.10
13115;DHT22;6623;52.120;8.660;2024-01-10T12:21:14;17.30;33.10
13115;DHT22;6623;52.120;8.660;2024-01-10T12:23:39;17.30;33.10
13115;DHT22;6623;52.120;8.660;2024-01-10T12:26:07;17.20;33.10
13115;DHT22;6623;52.120;8.660;2024-01-10T12:28:38;17.20;33.00
13115;DHT22;6623;52.120;8.660;2024-01-10T12:31:03;17.20;33.00
13115;DHT22;6623;52.120;8.660;2024-01-10T12:33:31;17.20;33.00
13115;DHT22;6623;52.120;8.660;2024-01-10T12:36:03;17.20;33.00
13115;DHT22;6623;52.120;8.660;2024-01-10T12:38:29;17.20;33.10
13115;DHT22;6623;52.120;8.660;2024-01-10T12:40:57;17.20;33.00
13115;DHT22;6623;52.120;8.660;2024-01-10T12:43:22;17.20;33.00
13115;DHT22;6623;52.120;8.660;2024-01-10T12:45:51;17.10;33.00
13115;DHT22;6623;52.120;8.660;2024-01-10T12:48:27;17.20;33.00
13115;DHT22;6623;52.120;8.660;2024-01-10T12:50:52;17.10;33.00
13115;DHT22;6623;52.120;8.660;2024-01-10T12:53:18;17.10;33.00
13115;DHT22;6623;52.120;8.660;2024-01-10T12:55:43;17.10;33.00
13115;DHT22;6623;52.120;8.660;2024-01-10T12:58:09;17.10;33.00
13115;DHT22;6623;52.120;8.660;2024-01-10T13:00:35;17.10;33.00
13115;DHT22;6623;52.120;8.660;2024-01-10T13:03:01;17.10;33.10
13115;DHT22;6623;52.120;8.660;2024-01-10T13:05:28;17.10;33.10
13115;DHT22;6623;52.120;8.660;2024-01-10T13:07:54;17.10;33.10
13115;DHT22;6623;52.120;8.660;2024-01-10T13:10:20;17.20;33.10
13115;DHT22;6623;52.120;8.660;2024-01-10T13:12:46;17.10;33.10
13115;DHT22;6623;52.120;8.660;2024-01-10T13:15:12;17.20;33.20
13115;DHT22;6623;52.120;8.660;2024-01-10T13:17:38;17.20;33.10
13115;DHT22;6623;52.120;8.660;2024-01-10T13:20:04;17.20;33.20
13115;DHT22;6623;52.120;8.660;2024-01-10T13:22:30;17.20;33.20
13115;DHT22;6623;52.120;8.660;2024-01-10T13:24:56;17.20;33.10
13115;DHT22;6623;52.120;8.660;2024-01-10T13:27:21;17.30;33.20
13115;DHT22;6623;52.120;8.660;2024-01-10T13:29:47;17.30;33.10
13115;DHT22;6623;52.120;8.660;2024-01-10T13:32:12;17.30;33.10
13115;DHT22;6623;52.120;8.660;2024-01-10T13:34:38;17.30;33.10
13115;DHT22;6623;52.120;8.660;2024-01-10T13:37:03;17.30;33.10
13115;DHT22;6623;52.120;8.660;2024-01-10T13:39:30;17.40;33.10
13115;DHT22;6623;52.120;8.660;2024-01-10T13:41:55;17.40;33.10
13115;DHT22;6623;52.120;8.660;2024-01-10T13:44:21;17.40;33.10
13115;DHT22;6623;52.120;8.660;2024-01-10T13:46:46;17.40;33.10
13115;DHT22;6623;52.120;8.660;2024-01-10T13:49:15;17.40;33.10
13115;DHT22;6623;52.120;8.660;2024-01-10T13:51:40;17.40;33.10
13115;DHT22;6623;52.120;8.660;2024-01-10T13:54:05;17.40;33.00
13115;DHT22;6623;52.120;8.660;2024-01-10T13:56:31;17.40;33.00
13115;DHT22;6623;52.120;8.660;2024-01-10T13:58:57;17.40;33.00
13115;DHT22;6623;52.120;8.660;2024-01-10T14:01:23;17.40;33.10
13115;DHT22;6623;52.120;8.660;2024-01-10T14:03:48;17.40;33.10
13115;DHT22;6623;52.120;8.660;2024-01-10T14:06:14;17.40;33.00
13115;DHT22;6623;52.120;8.660;2024-01-10T14:08:40;17.40;33.00
13115;DHT22;6623;52.120;8.660;2024-01-10T14:11:08;17.40;33.10
13115;DHT22;6623;52.120;8.660;2024-01-10T14:13:34;17.40;33.10
13115;DHT22;6623;52.120;8.660;2024-01-10T14:16:00;17.40;33.10
13115;DHT22;6623;52.120;8.660;2024-01-10T14:18:26;17.40;33.00
13115;DHT22;6623;52.120;8.660;2024-01-10T14:20:51;17.40;33.10
13115;DHT22;6623;52.120;8.660;2024-01-10T14:23:17;17.30;33.00
13115;DHT22;6623;52.120;8.660;2024-01-10T14:25:43;17.30;33.00
13115;DHT22;6623;52.120;8.660;2024-01-10T14:28:08;17.30;33.00
13115;DHT22;6623;52.120;8.660;2024-01-10T14:30:34;17.30;33.00
13115;DHT22;6623;52.120;8.660;2024-01-10T14:33:00;17.30;33.00
13115;DHT22;6623;52.120;8.660;2024-01-10T14:35:25;17.30;33.00
13115;DHT22;6623;52.120;8.660;2024-01-10T14:37:51;17.30;33.00
13115;DHT22;6623;52.120;8.660;2024-01-10T14:40:16;17.30;32.90
13115;DHT22;6623;52.120;8.660;2024-01-10T14:42:42;17.30;32.90
13115;DHT22;6623;52.120;8.660;2024-01-10T14:45:07;17.30;33.00
13115;DHT22;6623;52.120;8.660;2024-01-10T14:47:34;17.30;32.90
13115;DHT22;6623;52.120;8.660;2024-01-10T14:50:00;17.30;32.90
13115;DHT22;6623;52.120;8.660;2024-01-10T14:52:26;17.30;33.00
13115;DHT22;6623;52.120;8.660;2024-01-10T14:54:52;17.20;32.90
13115;DHT22;6623;52.120;8.660;2024-01-10T14:57:18;17.20;32.80
13115;DHT22;6623;52.120;8.660;2024-01-10T14:59:44;17.20;32.90
13115;DHT22;6623;52.120;8.660;2024-01-10T15:02:09;17.20;32.90
13115;DHT22;6623;52.120;8.660;2024-01-10T15:04:38;17.30;33.00
13115;DHT22;6623;52.120;8.660;2024-01-10T15:07:05;17.30;33.00
13115;DHT22;6623;52.120;8.660;2024-01-10T15:09:30;17.30;33.00
13115;DHT22;6623;52.120;8.660;2024-01-10T15:11:56;17.40;33.00
13115;DHT22;6623;52.120;8.660;2024-01-10T15:14:21;17.40;32.90
13115;DHT22;6623;52.120;8.660;2024-01-10T15:16:47;17.50;32.90
13115;DHT22;6623;52.120;8.660;2024-01-10T15:19:14;17.50;32.80
13115;DHT22;6623;52.120;8.660;2024-01-10T15:21:40;17.60;32.80
13115;DHT22;6623;52.120;8.660;2024-01-10T15:24:06;17.60;32.70
13115;DHT22;6623;52.120;8.660;2024-01-10T15:26:31;17.70;32.70
13115;DHT22;6623;52.120;8.660;2024-01-10T15:28:57;17.70;32.60
13115;DHT22;6623;52.120;8.660;2024-01-10T15:31:25;17.80;32.60
13115;DHT22;6623;52.120;8.660;2024-01-10T15:33:51;17.80;32.50
13115;DHT22;6623;52.120;8.660;2024-01-10T15:36:17;17.80;32.50
13115;DHT22;6623;52.120;8.660;2024-01-10T15:38:43;17.80;32.50
13115;DHT22;6623;52.120;8.660;2024-01-10T15:41:10;17.80;32.40
13115;DHT22;6623;52.120;8.660;2024-01-10T15:43:38;17.80;32.40
13115;DHT22;6623;52.120;8.660;2024-01-10T15:46:04;17.80;32.40
13115;DHT22;6623;52.120;8.660;2024-01-10T15:48:30;17.80;32.40
13115;DHT22;6623;52.120;8.660;2024-01-10T15:50:56;17.80;32.40
13115;DHT22;6623;52.120;8.660;2024-01-10T15:53:23;17.80;32.50
13115;DHT22;6623;52.120;8.660;2024-01-10T15:55:48;17.80;32.50